Time,TemperatureF,DewpointF,PressureIn,WindDirection,WindDirectionDegrees,WindSpeedMPH,WindSpeedGustMPH,Humidity,HourlyPrecipIn,Conditions,Clouds,dailyrainin,SoftwareType,DateUTC
2013-07-29 00:04:00,57.9,53.7,29.96,WNW,286,0.0,0.0,86,0.00,,,0.00,Wunderground v.1.15,2013-07-29 05:04:00,
2013-07-29 00:09:00,57.8,53.3,29.96,WNW,286,0.0,0.0,85,0.00,,,0.00,Wunderground v.1.15,2013-07-29 05:09:00,
2013-07-29 00:14:00,57.7,53.2,29.96,WNW,286,0.0,1.0,85,0.00,,,0.00,Wunderground v.1.15,2013-07-29 05:14:00,
2013-07-29 00:19:00,57.7,53.5,29.96,WNW,286,0.0,2.0,86,0.00,,,0.00,Wunderground v.1.15,2013-07-29 05:19:00,
2013-07-29 00:25:00,57.7,53.2,29.96,WNW,286,1.0,2.0,85,0.00,,,0.00,Wunderground v.1.15,2013-07-29 05:25:00,
2013-07-29 00:31:00,57.6,53.4,29.96,WNW,286,0.0,0.0,86,0.00,,,0.00,Wunderground v.1.15,2013-07-29 05:31:00,
2013-07-29 00:37:00,57.3,53.1,29.96,WNW,286,0.0,0.0,86,0.00,,,0.00,Wunderground v.1.15,2013-07-29 05:37:00,
2013-07-29 00:43:00,57.0,53.2,29.96,WNW,286,0.0,0.0,87,0.00,,,0.00,Wunderground v.1.15,2013-07-29 05:43:00,
2013-07-29 00:49:00,56.8,53.0,29.96,WNW,286,0.0,0.0,87,0.00,,,0.00,Wunderground v.1.15,2013-07-29 05:49:00,
2013-07-29 00:55:00,56.7,52.9,29.96,WNW,286,0.0,1.0,87,0.00,,,0.00,Wunderground v.1.15,2013-07-29 05:55:00,
2013-07-29 01:00:00,56.8,53.0,29.96,WNW,286,0.0,0.0,87,0.00,,,0.00,Wunderground v.1.15,2013-07-29 06:00:00,
2013-07-29 01:05:00,56.9,53.1,29.96,WNW,286,0.0,0.0,87,0.00,,,0.00,Wunderground v.1.15,2013-07-29 06:05:00,
2013-07-29 01:11:00,56.8,53.0,29.96,WNW,286,0.0,0.0,87,0.00,,,0.00,Wunderground v.1.15,2013-07-29 06:11:00,
2013-07-29 01:17:00,56.9,53.1,29.96,WNW,286,1.0,2.0,87,0.00,,,0.00,Wunderground v.1.15,2013-07-29 06:17:00,
2013-07-29 01:23:00,57.0,53.2,29.96,WNW,286,1.0,1.0,87,0.00,,,0.00,Wunderground v.1.15,2013-07-29 06:23:00,
2013-07-29 01:28:00,57.1,53.3,29.96,WNW,286,0.0,1.0,87,0.00,,,0.00,Wunderground v.1.15,2013-07-29 06:28:00,
2013-07-29 01:34:00,56.9,53.1,29.96,WNW,286,0.0,0.0,87,0.00,,,0.00,Wunderground v.1.15,2013-07-29 06:34:00,
2013-07-29 01:39:00,56.9,53.1,29.96,WNW,286,0.0,0.0,87,0.00,,,0.00,Wunderground v.1.15,2013-07-29 06:39:00,
2013-07-29 01:45:00,56.7,52.9,29.96,WNW,286,0.0,0.0,87,0.00,,,0.00,Wunderground v.1.15,2013-07-29 06:45:00,
2013-07-29 01:50:00,56.5,53.0,29.96,WNW,286,0.0,0.0,88,0.00,,,0.00,Wunderground v.1.15,2013-07-29 06:50:00,
2013-07-29 01:56:00,56.3,52.8,29.96,WNW,286,0.0,0.0,88,0.00,,,0.00,Wunderground v.1.15,2013-07-29 06:56:00,
2013-07-29 02:01:00,56.1,52.6,29.96,WNW,286,0.0,0.0,88,0.00,,,0.00,Wunderground v.1.15,2013-07-29 07:01:00,
2013-07-29 02:07:00,56.1,52.9,29.96,WNW,286,1.0,3.0,89,0.00,,,0.00,Wunderground v.1.15,2013-07-29 07:07:00,
2013-07-29 02:12:00,56.4,52.9,29.96,WNW,286,2.0,3.0,88,0.00,,,0.00,Wunderground v.1.15,2013-07-29 07:12:00,
2013-07-29 02:18:00,56.6,53.1,29.96,WNW,286,3.0,3.0,88,0.00,,,0.00,Wunderground v.1.15,2013-07-29 07:18:00,
2013-07-29 02:24:00,56.7,52.9,29.96,WNW,286,1.0,2.0,87,0.00,,,0.00,Wunderground v.1.15,2013-07-29 07:24:00,
2013-07-29 02:30:00,56.6,52.8,29.96,WNW,286,0.0,0.0,87,0.00,,,0.00,Wunderground v.1.15,2013-07-29 07:30:00,
2013-07-29 02:31:00,56.5,52.7,29.96,WNW,286,0.0,0.0,87,0.00,,,0.00,Wunderground v.1.15,2013-07-29 07:31:00,
2013-07-29 02:37:00,56.4,52.9,29.97,WNW,286,0.0,0.0,88,0.00,,,0.00,Wunderground v.1.15,2013-07-29 07:37:00,
2013-07-29 02:43:00,56.4,52.6,29.97,WNW,286,0.0,0.0,87,0.00,,,0.00,Wunderground v.1.15,2013-07-29 07:43:00,
2013-07-29 02:48:00,56.4,52.9,29.97,WNW,286,0.0,0.0,88,0.00,,,0.00,Wunderground v.1.15,2013-07-29 07:48:00,
2013-07-29 02:53:00,56.2,52.4,29.97,WNW,286,0.0,0.0,87,0.00,,,0.00,Wunderground v.1.15,2013-07-29 07:53:00,
2013-07-29 02:59:00,56.1,52.6,29.98,WNW,286,0.0,0.0,88,0.00,,,0.00,Wunderground v.1.15,2013-07-29 07:59:00,
2013-07-29 03:05:00,55.9,52.4,29.98,WNW,286,0.0,0.0,88,0.00,,,0.00,Wunderground v.1.15,2013-07-29 08:05:00,
2013-07-29 03:11:00,55.4,52.2,29.98,WNW,286,0.0,0.0,89,0.00,,,0.00,Wunderground v.1.15,2013-07-29 08:11:00,
2013-07-29 03:17:00,54.8,51.6,29.98,WNW,286,0.0,2.0,89,0.00,,,0.00,Wunderground v.1.15,2013-07-29 08:17:00,
2013-07-29 03:23:00,54.4,51.5,29.98,WNW,286,2.0,3.0,90,0.00,,,0.00,Wunderground v.1.15,2013-07-29 08:23:00,
2013-07-29 03:29:00,53.7,50.8,29.98,WNW,286,2.0,3.0,90,0.00,,,0.00,Wunderground v.1.15,2013-07-29 08:29:00,
2013-07-29 03:34:00,52.8,49.9,29.98,WNW,286,2.0,3.0,90,0.00,,,0.00,Wunderground v.1.15,2013-07-29 08:34:00,
2013-07-29 03:40:00,52.3,50.0,29.98,WNW,286,3.0,3.0,92,0.00,,,0.00,Wunderground v.1.15,2013-07-29 08:40:00,
2013-07-29 03:45:00,52.1,50.1,29.98,WNW,286,2.0,3.0,93,0.00,,,0.00,Wunderground v.1.15,2013-07-29 08:45:00,
2013-07-29 03:51:00,52.3,50.6,29.99,WNW,286,2.0,3.0,94,0.00,,,0.00,Wunderground v.1.15,2013-07-29 08:51:00,
2013-07-29 03:57:00,52.8,51.4,29.99,WNW,286,2.0,3.0,95,0.00,,,0.00,Wunderground v.1.15,2013-07-29 08:57:00,
2013-07-29 04:02:00,53.3,51.9,29.99,WNW,286,2.0,2.0,95,0.00,,,0.00,Wunderground v.1.15,2013-07-29 09:02:00,
2013-07-29 04:07:00,53.9,52.5,29.99,WNW,286,2.0,3.0,95,0.00,,,0.00,Wunderground v.1.15,2013-07-29 09:07:00,
2013-07-29 04:13:00,54.2,52.5,29.99,WNW,286,2.0,2.0,94,0.00,,,0.00,Wunderground v.1.15,2013-07-29 09:13:00,
2013-07-29 04:19:00,54.5,52.8,29.99,WNW,286,1.0,3.0,94,0.00,,,0.00,Wunderground v.1.15,2013-07-29 09:19:00,
2013-07-29 04:25:00,54.7,52.7,29.99,WNW,286,1.0,1.0,93,0.00,,,0.00,Wunderground v.1.15,2013-07-29 09:25:00,
2013-07-29 04:30:00,54.7,52.7,29.99,WNW,286,0.0,2.0,93,0.00,,,0.00,Wunderground v.1.15,2013-07-29 09:30:00,
2013-07-29 04:36:00,54.5,52.5,30.00,WNW,286,1.0,2.0,93,0.00,,,0.00,Wunderground v.1.15,2013-07-29 09:36:00,
2013-07-29 04:42:00,54.4,52.4,30.00,WNW,286,1.0,1.0,93,0.00,,,0.00,Wunderground v.1.15,2013-07-29 09:42:00,
2013-07-29 04:47:00,54.3,52.0,30.00,WNW,286,0.0,1.0,92,0.00,,,0.00,Wunderground v.1.15,2013-07-29 09:47:00,
2013-07-29 04:53:00,54.2,52.2,30.00,WNW,286,0.0,0.0,93,0.00,,,0.00,Wunderground v.1.15,2013-07-29 09:53:00,
2013-07-29 04:59:00,54.2,52.2,30.00,WNW,286,0.0,0.0,93,0.00,,,0.00,Wunderground v.1.15,2013-07-29 09:59:00,
2013-07-29 05:08:00,54.2,52.2,30.01,WNW,286,0.0,0.0,93,0.00,,,0.00,Wunderground v.1.15,2013-07-29 10:08:00,
2013-07-29 05:14:00,54.2,52.2,30.00,WNW,286,0.0,1.0,93,0.00,,,0.00,Wunderground v.1.15,2013-07-29 10:14:00,
2013-07-29 05:19:00,54.1,51.8,30.00,WNW,286,0.0,3.0,92,0.00,,,0.00,Wunderground v.1.15,2013-07-29 10:19:00,
2013-07-29 05:25:00,53.8,51.5,30.01,WNW,286,2.0,4.0,92,0.00,,,0.00,Wunderground v.1.15,2013-07-29 10:25:00,
2013-07-29 05:31:00,53.4,51.4,30.01,WNW,286,3.0,3.0,93,0.00,,,0.00,Wunderground v.1.15,2013-07-29 10:31:00,
2013-07-29 05:37:00,53.7,52.0,30.01,WNW,286,2.0,3.0,94,0.00,,,0.00,Wunderground v.1.15,2013-07-29 10:37:00,
2013-07-29 05:43:00,54.1,52.4,30.01,WNW,286,0.0,1.0,94,0.00,,,0.00,Wunderground v.1.15,2013-07-29 10:43:00,
2013-07-29 05:49:00,54.4,52.1,30.02,WNW,286,0.0,1.0,92,0.00,,,0.00,Wunderground v.1.15,2013-07-29 10:49:00,
2013-07-29 05:55:00,54.4,52.1,30.02,WNW,286,0.0,0.0,92,0.00,,,0.00,Wunderground v.1.15,2013-07-29 10:55:00,
2013-07-29 06:01:00,54.5,52.2,30.02,WNW,286,0.0,0.0,92,0.00,,,0.00,Wunderground v.1.15,2013-07-29 11:01:00,
2013-07-29 06:06:00,54.6,52.3,30.02,WNW,286,0.0,0.0,92,0.00,,,0.00,Wunderground v.1.15,2013-07-29 11:06:00,
2013-07-29 06:12:00,54.6,52.0,30.02,WNW,286,0.0,0.0,91,0.00,,,0.00,Wunderground v.1.15,2013-07-29 11:12:00,
2013-07-29 06:18:00,54.6,52.0,30.02,WNW,286,0.0,0.0,91,0.00,,,0.00,Wunderground v.1.15,2013-07-29 11:18:00,
2013-07-29 06:23:00,54.6,52.0,30.02,WNW,286,0.0,0.0,91,0.00,,,0.00,Wunderground v.1.15,2013-07-29 11:23:00,
2013-07-29 06:29:00,54.8,52.5,30.02,WNW,286,0.0,0.0,92,0.00,,,0.00,Wunderground v.1.15,2013-07-29 11:29:00,
2013-07-29 06:35:00,54.9,52.3,30.02,WNW,286,1.0,3.0,91,0.00,,,0.00,Wunderground v.1.15,2013-07-29 11:35:00,
2013-07-29 06:40:00,55.1,52.2,30.03,WNW,286,2.0,4.0,90,0.00,,,0.00,Wunderground v.1.15,2013-07-29 11:40:00,
2013-07-29 06:45:00,55.0,52.1,30.03,WNW,286,3.0,5.0,90,0.00,,,0.00,Wunderground v.1.15,2013-07-29 11:45:00,
2013-07-29 06:52:00,54.9,52.3,30.03,WNW,286,3.0,3.0,91,0.00,,,0.00,Wunderground v.1.15,2013-07-29 11:52:00,
2013-07-29 06:58:00,55.1,52.5,30.03,WNW,286,2.0,3.0,91,0.00,,,0.00,Wunderground v.1.15,2013-07-29 11:58:00,
2013-07-29 07:03:00,55.2,52.6,30.03,WNW,286,3.0,4.0,91,0.00,,,0.00,Wunderground v.1.15,2013-07-29 12:03:00,
2013-07-29 07:09:00,55.3,53.0,30.03,WNW,286,3.0,4.0,92,0.00,,,0.00,Wunderground v.1.15,2013-07-29 12:09:00,
2013-07-29 07:15:00,55.4,53.1,30.03,WNW,286,2.0,3.0,92,0.00,,,0.00,Wunderground v.1.15,2013-07-29 12:15:00,
2013-07-29 07:21:00,55.9,53.9,30.03,WNW,286,2.0,2.0,93,0.00,,,0.00,Wunderground v.1.15,2013-07-29 12:21:00,
2013-07-29 07:26:00,56.4,54.4,30.03,WNW,286,1.0,3.0,93,0.00,,,0.00,Wunderground v.1.15,2013-07-29 12:26:00,
2013-07-29 07:32:00,56.8,54.8,30.04,WNW,286,2.0,2.0,93,0.00,,,0.00,Wunderground v.1.15,2013-07-29 12:32:00,
2013-07-29 07:37:00,57.2,55.2,30.04,WNW,286,1.0,2.0,93,0.00,,,0.00,Wunderground v.1.15,2013-07-29 12:37:00,
2013-07-29 07:43:00,57.6,55.3,30.04,WNW,286,1.0,4.0,92,0.00,,,0.00,Wunderground v.1.15,2013-07-29 12:43:00,
2013-07-29 07:49:00,57.8,55.2,30.04,WNW,286,2.0,4.0,91,0.00,,,0.00,Wunderground v.1.15,2013-07-29 12:49:00,
2013-07-29 07:55:00,58.4,56.1,30.04,WNW,286,1.0,2.0,92,0.00,,,0.00,Wunderground v.1.15,2013-07-29 12:55:00,
2013-07-29 08:00:00,58.9,56.6,30.04,WNW,286,0.0,0.0,92,0.00,,,0.00,Wunderground v.1.15,2013-07-29 13:00:00,
2013-07-29 08:05:00,59.5,57.2,30.04,WNW,286,0.0,1.0,92,0.00,,,0.00,Wunderground v.1.15,2013-07-29 13:05:00,
2013-07-29 08:12:00,60.3,57.4,30.04,WNW,286,0.0,1.0,90,0.00,,,0.00,Wunderground v.1.15,2013-07-29 13:12:00,
2013-07-29 08:18:00,60.9,57.6,30.05,WNW,286,0.0,1.0,89,0.00,,,0.00,Wunderground v.1.15,2013-07-29 13:18:00,
2013-07-29 08:23:00,61.2,57.6,30.05,WNW,286,0.0,1.0,88,0.00,,,0.00,Wunderground v.1.15,2013-07-29 13:23:00,
2013-07-29 08:29:00,61.7,58.1,30.05,WNW,286,0.0,1.0,88,0.00,,,0.00,Wunderground v.1.15,2013-07-29 13:29:00,
2013-07-29 08:35:00,62.1,57.9,30.05,WNW,286,0.0,0.0,86,0.00,,,0.00,Wunderground v.1.15,2013-07-29 13:35:00,
2013-07-29 08:40:00,62.4,58.2,30.05,WNW,286,1.0,1.0,86,0.00,,,0.00,Wunderground v.1.15,2013-07-29 13:40:00,
2013-07-29 08:45:00,62.6,58.0,30.05,WNW,286,2.0,3.0,85,0.00,,,0.00,Wunderground v.1.15,2013-07-29 13:45:00,
2013-07-29 08:52:00,63.2,57.9,30.06,WNW,286,1.0,2.0,83,0.00,,,0.00,Wunderground v.1.15,2013-07-29 13:52:00,
2013-07-29 08:57:00,63.6,58.0,30.06,WNW,286,1.0,2.0,82,0.00,,,0.00,Wunderground v.1.15,2013-07-29 13:57:00,
2013-07-29 09:03:00,64.2,58.9,30.06,WNW,286,0.0,1.0,83,0.00,,,0.00,Wunderground v.1.15,2013-07-29 14:03:00,
2013-07-29 09:09:00,64.6,58.3,30.06,WNW,286,1.0,3.0,80,0.00,,,0.00,Wunderground v.1.15,2013-07-29 14:09:00,
2013-07-29 09:15:00,64.9,57.2,30.06,WNW,286,2.0,2.0,76,0.00,,,0.00,Wunderground v.1.15,2013-07-29 14:15:00,
2013-07-29 09:20:00,65.1,57.3,30.06,WNW,286,3.0,3.0,76,0.00,,,0.00,Wunderground v.1.15,2013-07-29 14:20:00,
2013-07-29 09:26:00,65.5,57.7,30.06,WNW,289,2.0,3.0,76,0.00,,,0.00,Wunderground v.1.15,2013-07-29 14:26:00,
2013-07-29 09:32:00,65.9,57.7,30.06,WNW,288,2.0,4.0,75,0.00,,,0.00,Wunderground v.1.15,2013-07-29 14:32:00,
2013-07-29 09:37:00,66.0,56.7,30.06,WNW,286,2.0,4.0,72,0.00,,,0.00,Wunderground v.1.15,2013-07-29 14:37:00,
2013-07-29 09:43:00,66.1,56.8,30.06,WNW,284,2.0,3.0,72,0.00,,,0.00,Wunderground v.1.15,2013-07-29 14:43:00,
2013-07-29 09:49:00,66.4,56.7,30.06,WNW,283,2.0,4.0,71,0.00,,,0.00,Wunderground v.1.15,2013-07-29 14:49:00,
2013-07-29 09:54:00,66.7,57.4,30.06,West,280,3.0,4.0,72,0.00,,,0.00,Wunderground v.1.15,2013-07-29 14:54:00,
2013-07-29 10:00:00,67.0,58.1,30.06,WNW,282,3.0,3.0,73,0.00,,,0.00,Wunderground v.1.15,2013-07-29 15:00:00,
2013-07-29 10:06:00,67.3,56.0,30.06,WNW,299,3.0,4.0,67,0.00,,,0.00,Wunderground v.1.15,2013-07-29 15:06:00,
2013-07-29 10:12:00,67.6,57.1,30.06,WNW,286,3.0,4.0,69,0.00,,,0.00,Wunderground v.1.15,2013-07-29 15:12:00,
2013-07-29 10:17:00,67.6,57.5,30.06,WNW,290,3.0,4.0,70,0.00,,,0.00,Wunderground v.1.15,2013-07-29 15:17:00,
2013-07-29 10:22:00,67.8,57.7,30.06,WNW,298,3.0,5.0,70,0.00,,,0.00,Wunderground v.1.15,2013-07-29 15:22:00,
2013-07-29 10:28:00,68.3,56.9,30.05,West,267,2.0,5.0,67,0.00,,,0.00,Wunderground v.1.15,2013-07-29 15:28:00,
2013-07-29 10:35:00,68.8,57.4,30.06,West,269,1.0,4.0,67,0.00,,,0.00,Wunderground v.1.15,2013-07-29 15:35:00,
2013-07-29 10:41:00,69.1,58.5,30.06,WSW,238,2.0,4.0,69,0.00,,,0.00,Wunderground v.1.15,2013-07-29 15:41:00,
2013-07-29 10:47:00,69.1,56.8,30.06,WSW,250,4.0,5.0,65,0.00,,,0.00,Wunderground v.1.15,2013-07-29 15:47:00,
2013-07-29 10:52:00,69.0,56.3,30.06,SW,234,4.0,5.0,64,0.00,,,0.00,Wunderground v.1.15,2013-07-29 15:52:00,
2013-07-29 10:58:00,69.1,55.5,30.06,WSW,238,3.0,6.0,62,0.00,,,0.00,Wunderground v.1.15,2013-07-29 15:58:00,
2013-07-29 11:03:00,69.3,56.2,30.06,West,270,3.0,3.0,63,0.00,,,0.00,Wunderground v.1.15,2013-07-29 16:03:00,
2013-07-29 11:08:00,69.7,55.2,30.06,West,273,1.0,3.0,60,0.00,,,0.00,Wunderground v.1.15,2013-07-29 16:08:00,
2013-07-29 11:14:00,69.7,55.2,30.06,WNW,298,2.0,4.0,60,0.00,,,0.00,Wunderground v.1.15,2013-07-29 16:14:00,
2013-07-29 11:19:00,69.9,55.8,30.06,NW,308,2.0,5.0,61,0.00,,,0.00,Wunderground v.1.15,2013-07-29 16:19:00,
2013-07-29 11:25:00,70.1,55.6,30.06,WNW,298,2.0,5.0,60,0.00,,,0.00,Wunderground v.1.15,2013-07-29 16:25:00,
2013-07-29 11:32:00,70.3,55.8,30.05,WNW,296,1.0,2.0,60,0.00,,,0.00,Wunderground v.1.15,2013-07-29 16:32:00,
2013-07-29 11:38:00,70.8,55.8,30.05,NW,308,1.0,7.0,59,0.00,,,0.00,Wunderground v.1.15,2013-07-29 16:38:00,
2013-07-29 11:44:00,70.7,55.2,30.05,NW,308,2.0,4.0,58,0.00,,,0.00,Wunderground v.1.15,2013-07-29 16:44:00,
2013-07-29 11:50:00,70.7,55.2,30.05,NW,306,1.0,1.0,58,0.00,,,0.00,Wunderground v.1.15,2013-07-29 16:50:00,
2013-07-29 11:57:00,71.7,57.1,30.05,WNW,296,1.0,3.0,60,0.00,,,0.00,Wunderground v.1.15,2013-07-29 16:57:00,
2013-07-29 12:03:00,72.0,57.8,30.05,WNW,296,1.0,2.0,61,0.00,,,0.00,Wunderground v.1.15,2013-07-29 17:03:00,
2013-07-29 12:10:00,72.1,57.4,30.05,WSW,248,2.0,2.0,60,0.00,,,0.00,Wunderground v.1.15,2013-07-29 17:10:00,
2013-07-29 12:15:00,72.3,56.7,30.05,SW,219,3.0,10.0,58,0.00,,,0.00,Wunderground v.1.15,2013-07-29 17:15:00,
2013-07-29 12:20:00,71.8,56.7,30.05,SW,236,4.0,4.0,59,0.00,,,0.00,Wunderground v.1.15,2013-07-29 17:20:00,
2013-07-29 12:25:00,71.5,56.9,30.05,SW,225,4.0,6.0,60,0.00,,,0.00,Wunderground v.1.15,2013-07-29 17:25:00,
2013-07-29 12:31:00,71.3,56.7,30.05,SW,214,3.0,3.0,60,0.00,,,0.00,Wunderground v.1.15,2013-07-29 17:31:00,
2013-07-29 12:36:00,71.6,57.0,30.05,SSW,209,3.0,4.0,60,0.00,,,0.00,Wunderground v.1.15,2013-07-29 17:36:00,
2013-07-29 12:42:00,72.0,57.4,30.05,SW,229,3.0,6.0,60,0.00,,,0.00,Wunderground v.1.15,2013-07-29 17:42:00,
2013-07-29 12:48:00,72.3,56.7,30.05,SW,225,3.0,6.0,58,0.00,,,0.00,Wunderground v.1.15,2013-07-29 17:48:00,
2013-07-29 12:54:00,72.3,58.1,30.05,SW,224,3.0,9.0,61,0.00,,,0.00,Wunderground v.1.15,2013-07-29 17:54:00,
2013-07-29 12:59:00,72.5,56.9,30.04,SW,227,4.0,9.0,58,0.00,,,0.00,Wunderground v.1.15,2013-07-29 17:59:00,
2013-07-29 13:04:00,73.0,56.9,30.04,SW,234,2.0,6.0,57,0.00,,,0.00,Wunderground v.1.15,2013-07-29 18:04:00,
2013-07-29 13:09:00,72.8,57.2,30.04,SW,234,4.0,7.0,58,0.00,,,0.00,Wunderground v.1.15,2013-07-29 18:09:00,
2013-07-29 13:15:00,72.7,56.6,30.03,SSE,163,5.0,5.0,57,0.00,,,0.00,Wunderground v.1.15,2013-07-29 18:15:00,
2013-07-29 13:20:00,72.7,57.5,30.03,SSE,163,3.0,3.0,59,0.00,,,0.00,Wunderground v.1.15,2013-07-29 18:20:00,
2013-07-29 13:26:00,72.6,57.4,30.04,SSW,198,4.0,6.0,59,0.00,,,0.00,Wunderground v.1.15,2013-07-29 18:26:00,
2013-07-29 13:32:00,72.6,57.0,30.04,South,178,4.0,5.0,58,0.00,,,0.00,Wunderground v.1.15,2013-07-29 18:32:00,
2013-07-29 13:37:00,72.9,57.7,30.04,South,178,3.0,5.0,59,0.00,,,0.00,Wunderground v.1.15,2013-07-29 18:37:00,
2013-07-29 13:42:00,73.0,58.8,30.04,SW,235,4.0,5.0,61,0.00,,,0.00,Wunderground v.1.15,2013-07-29 18:42:00,
2013-07-29 13:48:00,73.1,59.3,30.04,SW,232,5.0,6.0,62,0.00,,,0.00,Wunderground v.1.15,2013-07-29 18:48:00,
2013-07-29 13:54:00,73.5,56.8,30.04,SW,234,3.0,4.0,56,0.00,,,0.00,Wunderground v.1.15,2013-07-29 18:54:00,
2013-07-29 13:59:00,73.3,57.6,30.04,SW,229,4.0,6.0,58,0.00,,,0.00,Wunderground v.1.15,2013-07-29 18:59:00,
2013-07-29 14:05:00,73.2,56.6,30.03,WSW,253,4.0,4.0,56,0.00,,,0.00,Wunderground v.1.15,2013-07-29 19:05:00,
2013-07-29 14:11:00,73.6,56.9,30.03,SW,234,3.0,10.0,56,0.00,,,0.00,Wunderground v.1.15,2013-07-29 19:11:00,
2013-07-29 14:16:00,73.6,57.9,30.03,SW,234,3.0,10.0,58,0.00,,,0.00,Wunderground v.1.15,2013-07-29 19:16:00,
2013-07-29 14:21:00,73.7,56.5,30.03,SW,236,4.0,4.0,55,0.00,,,0.00,Wunderground v.1.15,2013-07-29 19:21:00,
2013-07-29 14:27:00,73.7,57.5,30.04,SSW,207,4.0,5.0,57,0.00,,,0.00,Wunderground v.1.15,2013-07-29 19:27:00,
2013-07-29 14:32:00,73.8,57.1,30.04,SSW,205,3.0,5.0,56,0.00,,,0.00,Wunderground v.1.15,2013-07-29 19:32:00,
2013-07-29 14:38:00,73.8,56.6,30.05,SW,229,4.0,9.0,55,0.00,,,0.00,Wunderground v.1.15,2013-07-29 19:38:00,
2013-07-29 14:44:00,73.2,54.0,30.05,SW,232,6.0,10.0,51,0.00,,,0.00,Wunderground v.1.15,2013-07-29 19:44:00,
2013-07-29 14:50:00,73.2,56.6,30.04,SW,227,6.0,6.0,56,0.00,,,0.00,Wunderground v.1.15,2013-07-29 19:50:00,
2013-07-29 14:56:00,73.4,54.7,30.04,SW,229,5.0,6.0,52,0.00,,,0.00,Wunderground v.1.15,2013-07-29 19:56:00,
2013-07-29 15:01:00,73.9,56.2,30.04,SW,218,3.0,3.0,54,0.00,,,0.00,Wunderground v.1.15,2013-07-29 20:01:00,
2013-07-29 15:06:00,74.3,57.6,30.04,SW,234,3.0,7.0,56,0.00,,,0.00,Wunderground v.1.15,2013-07-29 20:06:00,
2013-07-29 15:12:00,74.6,57.4,30.04,WNW,296,4.0,4.0,55,0.00,,,0.00,Wunderground v.1.15,2013-07-29 20:12:00,
2013-07-29 15:17:00,74.8,56.5,30.04,West,268,4.0,7.0,53,0.00,,,0.00,Wunderground v.1.15,2013-07-29 20:17:00,
2013-07-29 15:22:00,74.7,56.4,30.04,West,268,3.0,3.0,53,0.00,,,0.00,Wunderground v.1.15,2013-07-29 20:22:00,
2013-07-29 15:28:00,74.5,58.8,30.04,SW,234,2.0,7.0,58,0.00,,,0.00,Wunderground v.1.15,2013-07-29 20:28:00,
2013-07-29 15:33:00,74.0,57.3,30.04,SW,223,4.0,9.0,56,0.00,,,0.00,Wunderground v.1.15,2013-07-29 20:33:00,
2013-07-29 15:39:00,73.9,58.2,30.04,SW,221,5.0,9.0,58,0.00,,,0.00,Wunderground v.1.15,2013-07-29 20:39:00,
2013-07-29 15:45:00,74.3,59.0,30.05,SW,236,4.0,6.0,59,0.00,,,0.00,Wunderground v.1.15,2013-07-29 20:45:00,
2013-07-29 15:50:00,74.3,57.6,30.05,WSW,238,4.0,4.0,56,0.00,,,0.00,Wunderground v.1.15,2013-07-29 20:50:00,
2013-07-29 15:56:00,74.0,60.2,30.05,WSW,237,4.0,5.0,62,0.00,,,0.00,Wunderground v.1.15,2013-07-29 20:56:00,
2013-07-29 16:01:00,73.9,57.7,30.05,WSW,244,5.0,13.0,57,0.00,,,0.00,Wunderground v.1.15,2013-07-29 21:01:00,
2013-07-29 16:06:00,73.5,57.8,30.05,SW,231,7.0,13.0,58,0.00,,,0.00,Wunderground v.1.15,2013-07-29 21:06:00,
2013-07-29 16:12:00,73.3,57.1,30.04,SW,231,7.0,10.0,57,0.00,,,0.00,Wunderground v.1.15,2013-07-29 21:12:00,
2013-07-29 16:17:00,73.1,57.9,30.03,SW,232,7.0,10.0,59,0.00,,,0.00,Wunderground v.1.15,2013-07-29 21:17:00,
2013-07-29 16:23:00,73.1,57.0,30.03,SW,231,4.0,6.0,57,0.00,,,0.00,Wunderground v.1.15,2013-07-29 21:23:00,
2013-07-29 16:28:00,73.5,56.8,30.03,SW,231,2.0,6.0,56,0.00,,,0.00,Wunderground v.1.15,2013-07-29 21:28:00,
2013-07-29 16:34:00,73.8,55.1,30.03,SW,231,2.0,3.0,52,0.00,,,0.00,Wunderground v.1.15,2013-07-29 21:34:00,
2013-07-29 16:39:00,74.2,56.0,30.03,SW,231,2.0,4.0,53,0.00,,,0.00,Wunderground v.1.15,2013-07-29 21:39:00,
2013-07-29 16:44:00,74.4,55.1,30.03,SW,231,2.0,4.0,51,0.00,,,0.00,Wunderground v.1.15,2013-07-29 21:44:00,
2013-07-29 16:50:00,74.6,54.2,30.03,SW,231,1.0,1.0,49,0.00,,,0.00,Wunderground v.1.15,2013-07-29 21:50:00,
2013-07-29 16:56:00,75.0,53.4,30.03,SW,231,0.0,1.0,47,0.00,,,0.00,Wunderground v.1.15,2013-07-29 21:56:00,
2013-07-29 17:01:00,75.4,54.9,30.03,SW,231,0.0,0.0,49,0.00,,,0.00,Wunderground v.1.15,2013-07-29 22:01:00,
2013-07-29 17:07:00,75.7,55.2,30.03,SW,232,0.0,0.0,49,0.00,,,0.00,Wunderground v.1.15,2013-07-29 22:07:00,
2013-07-29 17:13:00,75.5,56.1,30.03,SW,231,0.0,2.0,51,0.00,,,0.00,Wunderground v.1.15,2013-07-29 22:13:00,
2013-07-29 17:18:00,75.4,56.5,30.04,SW,231,0.0,2.0,52,0.00,,,0.00,Wunderground v.1.15,2013-07-29 22:18:00,
2013-07-29 17:23:00,75.2,56.9,30.03,SW,231,0.0,1.0,53,0.00,,,0.00,Wunderground v.1.15,2013-07-29 22:23:00,
2013-07-29 17:29:00,75.2,56.9,30.03,SW,231,0.0,1.0,53,0.00,,,0.00,Wunderground v.1.15,2013-07-29 22:29:00,
2013-07-29 17:34:00,75.3,57.0,30.03,SW,231,0.0,0.0,53,0.00,,,0.00,Wunderground v.1.15,2013-07-29 22:34:00,
2013-07-29 17:40:00,75.3,56.5,30.03,SW,231,1.0,1.0,52,0.00,,,0.00,Wunderground v.1.15,2013-07-29 22:40:00,
2013-07-29 17:45:00,75.3,56.5,30.03,SW,231,1.0,1.0,52,0.00,,,0.00,Wunderground v.1.15,2013-07-29 22:45:00,
2013-07-29 17:51:00,76.0,57.1,30.02,SW,231,0.0,0.0,52,0.00,,,0.00,Wunderground v.1.15,2013-07-29 22:51:00,
2013-07-29 17:56:00,76.9,57.9,30.02,SW,231,0.0,1.0,52,0.00,,,0.00,Wunderground v.1.15,2013-07-29 22:56:00,
2013-07-29 18:02:00,77.2,57.7,30.02,SW,231,0.0,0.0,51,0.00,,,0.00,Wunderground v.1.15,2013-07-29 23:02:00,
2013-07-29 18:07:00,76.9,59.0,30.02,SW,231,1.0,6.0,54,0.00,,,0.00,Wunderground v.1.15,2013-07-29 23:07:00,
2013-07-29 18:13:00,75.9,58.1,30.03,SW,231,2.0,2.0,54,0.00,,,0.00,Wunderground v.1.15,2013-07-29 23:13:00,
2013-07-29 18:19:00,75.4,59.6,30.03,SW,231,2.0,5.0,58,0.00,,,0.00,Wunderground v.1.15,2013-07-29 23:19:00,
2013-07-29 18:25:00,75.1,59.8,30.03,SW,231,2.0,5.0,59,0.00,,,0.00,Wunderground v.1.15,2013-07-29 23:25:00,
2013-07-29 18:31:00,74.7,58.5,30.02,SW,231,2.0,3.0,57,0.00,,,0.00,Wunderground v.1.15,2013-07-29 23:31:00,
2013-07-29 18:38:00,74.6,59.3,30.02,SW,231,1.0,3.0,59,0.00,,,0.00,Wunderground v.1.15,2013-07-29 23:38:00,
2013-07-29 18:43:00,74.3,59.0,30.02,SW,231,2.0,4.0,59,0.00,,,0.00,Wunderground v.1.15,2013-07-29 23:43:00,
2013-07-29 18:49:00,74.0,58.8,30.02,SW,231,3.0,4.0,59,0.00,,,0.00,Wunderground v.1.15,2013-07-29 23:49:00,
2013-07-29 18:55:00,73.9,59.6,30.02,SW,231,2.0,3.0,61,0.00,,,0.00,Wunderground v.1.15,2013-07-29 23:55:00,
2013-07-29 19:00:00,73.8,60.4,30.02,SW,231,1.0,2.0,63,0.00,,,0.00,Wunderground v.1.15,2013-07-30 00:00:00,
2013-07-29 19:05:00,73.7,60.8,30.03,SW,231,1.0,3.0,64,0.00,,,0.00,Wunderground v.1.15,2013-07-30 00:05:00,
2013-07-29 19:10:00,73.6,60.7,30.02,SW,231,1.0,1.0,64,0.00,,,0.00,Wunderground v.1.15,2013-07-30 00:10:00,
2013-07-29 19:16:00,73.6,61.1,30.02,SW,231,0.0,1.0,65,0.00,,,0.00,Wunderground v.1.15,2013-07-30 00:16:00,
2013-07-29 19:22:00,73.5,61.0,30.02,SW,231,0.0,1.0,65,0.00,,,0.00,Wunderground v.1.15,2013-07-30 00:22:00,
2013-07-29 19:28:00,73.0,61.4,30.02,SW,231,0.0,1.0,67,0.00,,,0.00,Wunderground v.1.15,2013-07-30 00:28:00,
2013-07-29 19:33:00,72.5,60.9,30.02,SW,231,0.0,2.0,67,0.00,,,0.00,Wunderground v.1.15,2013-07-30 00:33:00,
2013-07-29 19:39:00,72.0,60.9,30.03,SW,231,0.0,2.0,68,0.00,,,0.00,Wunderground v.1.15,2013-07-30 00:39:00,
2013-07-29 19:44:00,71.5,60.4,30.03,SW,231,0.0,0.0,68,0.00,,,0.00,Wunderground v.1.15,2013-07-30 00:44:00,
2013-07-29 19:50:00,71.2,60.5,30.02,SW,231,0.0,0.0,69,0.00,,,0.00,Wunderground v.1.15,2013-07-30 00:50:00,
2013-07-29 19:56:00,70.8,62.1,30.03,SW,231,0.0,1.0,74,0.00,,,0.00,Wunderground v.1.15,2013-07-30 00:56:00,
2013-07-29 20:02:00,70.3,60.4,30.02,SW,231,1.0,2.0,71,0.00,,,0.00,Wunderground v.1.15,2013-07-30 01:02:00,
2013-07-29 20:08:00,70.1,61.0,30.02,SW,231,1.0,2.0,73,0.00,,,0.00,Wunderground v.1.15,2013-07-30 01:08:00,
2013-07-29 20:13:00,69.7,61.0,30.01,SW,231,0.0,1.0,74,0.00,,,0.00,Wunderground v.1.15,2013-07-30 01:13:00,
2013-07-29 20:18:00,69.4,61.5,30.02,SW,231,0.0,1.0,76,0.00,,,0.00,Wunderground v.1.15,2013-07-30 01:18:00,
2013-07-29 20:23:00,69.1,60.8,30.02,SW,231,0.0,3.0,75,0.00,,,0.00,Wunderground v.1.15,2013-07-30 01:23:00,
2013-07-29 20:28:00,68.8,60.6,30.01,SW,231,1.0,3.0,75,0.00,,,0.00,Wunderground v.1.15,2013-07-30 01:28:00,
2013-07-29 20:34:00,68.5,60.3,30.01,SW,231,2.0,2.0,75,0.00,,,0.00,Wunderground v.1.15,2013-07-30 01:34:00,
2013-07-29 20:39:00,68.2,60.3,30.01,SW,231,2.0,3.0,76,0.00,,,0.00,Wunderground v.1.15,2013-07-30 01:39:00,
2013-07-29 20:44:00,68.1,60.2,30.01,SW,231,2.0,2.0,76,0.00,,,0.00,Wunderground v.1.15,2013-07-30 01:44:00,
2013-07-29 20:49:00,68.1,60.2,30.02,SW,231,2.0,2.0,76,0.00,,,0.00,Wunderground v.1.15,2013-07-30 01:49:00,
2013-07-29 20:54:00,68.0,60.2,30.02,SW,231,2.0,2.0,76,0.00,,,0.00,Wunderground v.1.15,2013-07-30 01:54:00,
2013-07-29 21:00:00,67.7,60.6,30.03,SW,231,2.0,2.0,78,0.00,,,0.00,Wunderground v.1.15,2013-07-30 02:00:00,
2013-07-29 21:05:00,67.3,60.9,30.03,SW,231,1.0,2.0,80,0.00,,,0.00,Wunderground v.1.15,2013-07-30 02:05:00,
2013-07-29 21:11:00,66.8,60.4,30.03,SW,231,0.0,1.0,80,0.00,,,0.00,Wunderground v.1.15,2013-07-30 02:11:00,
2013-07-29 21:17:00,66.5,60.1,30.03,SW,231,1.0,2.0,80,0.00,,,0.00,Wunderground v.1.15,2013-07-30 02:17:00,
2013-07-29 21:23:00,66.6,59.9,30.03,SW,231,1.0,1.0,79,0.00,,,0.00,Wunderground v.1.15,2013-07-30 02:23:00,
2013-07-29 21:29:00,66.7,60.0,30.03,SW,231,0.0,1.0,79,0.00,,,0.00,Wunderground v.1.15,2013-07-30 02:29:00,
2013-07-29 21:35:00,66.8,59.7,30.04,SW,231,0.0,0.0,78,0.00,,,0.00,Wunderground v.1.15,2013-07-30 02:35:00,
2013-07-29 21:41:00,67.0,59.2,30.04,SW,231,0.0,1.0,76,0.00,,,0.00,Wunderground v.1.15,2013-07-30 02:41:00,
2013-07-29 21:47:00,67.1,59.6,30.04,SW,231,1.0,2.0,77,0.00,,,0.00,Wunderground v.1.15,2013-07-30 02:47:00,
2013-07-29 21:53:00,66.9,59.5,30.04,SW,231,0.0,0.0,77,0.00,,,0.00,Wunderground v.1.15,2013-07-30 02:53:00,
2013-07-29 21:58:00,66.8,59.7,30.04,SW,231,0.0,1.0,78,0.00,,,0.00,Wunderground v.1.15,2013-07-30 02:58:00,
2013-07-29 22:04:00,66.8,59.7,30.04,SW,231,0.0,0.0,78,0.00,,,0.00,Wunderground v.1.15,2013-07-30 03:04:00,
2013-07-29 22:09:00,66.7,60.0,30.04,SW,231,0.0,0.0,79,0.00,,,0.00,Wunderground v.1.15,2013-07-30 03:09:00,
2013-07-29 22:15:00,66.2,59.5,30.04,SW,231,0.0,0.0,79,0.00,,,0.00,Wunderground v.1.15,2013-07-30 03:15:00,
2013-07-29 22:20:00,65.8,59.1,30.04,SW,231,0.0,3.0,79,0.00,,,0.00,Wunderground v.1.15,2013-07-30 03:20:00,
2013-07-29 22:25:00,65.6,58.9,30.04,SW,231,2.0,4.0,79,0.00,,,0.00,Wunderground v.1.15,2013-07-30 03:25:00,
2013-07-29 22:31:00,65.5,59.2,30.05,SW,231,2.0,2.0,80,0.00,,,0.00,Wunderground v.1.15,2013-07-30 03:31:00,
2013-07-29 22:37:00,65.2,58.9,30.04,SW,231,0.0,2.0,80,0.00,,,0.00,Wunderground v.1.15,2013-07-30 03:37:00,
2013-07-29 22:43:00,65.0,59.0,30.04,SW,231,0.0,2.0,81,0.00,,,0.00,Wunderground v.1.15,2013-07-30 03:43:00,
2013-07-29 22:49:00,64.8,59.2,30.04,SW,231,1.0,3.0,82,0.00,,,0.00,Wunderground v.1.15,2013-07-30 03:49:00,
2013-07-29 22:54:00,64.8,59.2,30.04,SW,231,1.0,2.0,82,0.00,,,0.00,Wunderground v.1.15,2013-07-30 03:54:00,
2013-07-29 23:00:00,64.7,59.1,30.04,SW,231,0.0,0.0,82,0.00,,,0.00,Wunderground v.1.15,2013-07-30 04:00:00,
2013-07-29 23:01:00,64.7,59.1,30.04,SW,231,0.0,0.0,82,0.00,,,0.00,Wunderground v.1.15,2013-07-30 04:01:00,
2013-07-29 23:02:00,64.7,59.1,30.04,SW,231,0.0,0.0,82,0.00,,,0.00,Wunderground v.1.15,2013-07-30 04:02:00,
2013-07-29 23:05:00,64.7,59.1,30.04,SW,231,0.0,2.0,82,0.00,,,0.00,Wunderground v.1.15,2013-07-30 04:05:00,
2013-07-29 23:08:00,64.7,58.7,30.04,SW,231,1.0,3.0,81,0.00,,,0.00,Wunderground v.1.15,2013-07-30 04:08:00,
2013-07-29 23:13:00,64.7,58.7,30.04,SW,231,1.0,2.0,81,0.00,,,0.00,Wunderground v.1.15,2013-07-30 04:13:00,
2013-07-29 23:18:00,64.7,58.7,30.04,SW,231,1.0,2.0,81,0.00,,,0.00,Wunderground v.1.15,2013-07-30 04:18:00,
2013-07-29 23:24:00,64.7,59.1,30.04,SW,231,1.0,2.0,82,0.00,,,0.00,Wunderground v.1.15,2013-07-30 04:24:00,
2013-07-29 23:29:00,64.7,59.1,30.05,SW,231,1.0,2.0,82,0.00,,,0.00,Wunderground v.1.15,2013-07-30 04:29:00,
2013-07-29 23:34:00,64.7,59.1,30.05,SW,231,0.0,1.0,82,0.00,,,0.00,Wunderground v.1.15,2013-07-30 04:34:00,
2013-07-29 23:40:00,64.7,59.1,30.04,SW,231,0.0,0.0,82,0.00,,,0.00,Wunderground v.1.15,2013-07-30 04:40:00,
2013-07-29 23:46:00,64.8,59.2,30.04,SW,231,0.0,0.0,82,0.00,,,0.00,Wunderground v.1.15,2013-07-30 04:46:00,
2013-07-29 23:52:00,64.8,59.2,30.04,SW,231,0.0,0.0,82,0.00,,,0.00,Wunderground v.1.15,2013-07-30 04:52:00,
2013-07-29 23:58:00,64.8,59.2,30.04,SW,231,0.0,0.0,82,0.00,,,0.00,Wunderground v.1.15,2013-07-30 04:58:00,